Terminal Aerodrome Forecast
Issued by NWS

Home | Current Version | Previous Version | Text Only | Print | Product List | Glossary On
Versions: 1 2 3 4 5 6 7 8 9 10 11 12 13 14 15 16 17 18 19
000
FTUS46 KMTR 311800 AAA
TAFSJC
TAF AMD
KSJC 311846Z 3119/0118 14004KT P6SM -RA BKN030
     FM312100 31006KT P6SM -RA BKN040
     FM010200 14005KT P6SM VCSH BKN030
     FM011000 15005KT P6SM SCT050=

USA.gov is the U.S. government's official web portal to all federal, state and local government web resources and services.